sensor_id;sensor_type;location;lat;lon;timestamp;P1;durP1;ratioP1;P2;durP2;ratioP2
44646;SDS011;56315;-33.902;151.160;2023-05-03T00:02:11;2.35;;;0.52;;
44646;SDS011;56315;-33.902;151.160;2023-05-03T00:04:40;1.40;;;0.40;;
44646;SDS011;56315;-33.902;151.160;2023-05-03T00:07:10;4.07;;;0.70;;
44646;SDS011;56315;-33.902;151.160;2023-05-03T00:09:38;1.65;;;0.38;;
44646;SDS011;56315;-33.902;151.160;2023-05-03T00:12:05;2.78;;;0.40;;
44646;SDS011;56315;-33.902;151.160;2023-05-03T00:14:32;8.38;;;6.78;;
44646;SDS011;56315;-33.902;151.160;2023-05-03T00:16:59;6.40;;;5.43;;
44646;SDS011;56315;-33.902;151.160;2023-05-03T00:19:27;1.17;;;0.32;;
44646;SDS011;56315;-33.902;151.160;2023-05-03T00:21:57;2.05;;;0.60;;
44646;SDS011;56315;-33.902;151.160;2023-05-03T00:24:25;0.88;;;0.30;;
44646;SDS011;56315;-33.902;151.160;2023-05-03T00:26:53;1.08;;;0.40;;
44646;SDS011;56315;-33.902;151.160;2023-05-03T00:29:20;1.25;;;0.38;;
44646;SDS011;56315;-33.902;151.160;2023-05-03T00:31:47;1.42;;;0.57;;
44646;SDS011;56315;-33.902;151.160;2023-05-03T00:34:14;1.05;;;0.40;;
44646;SDS011;56315;-33.902;151.160;2023-05-03T00:36:42;1.63;;;0.60;;
44646;SDS011;56315;-33.902;151.160;2023-05-03T00:39:09;2.50;;;0.40;;
44646;SDS011;56315;-33.902;151.160;2023-05-03T00:41:37;0.98;;;0.35;;
44646;SDS011;56315;-33.902;151.160;2023-05-03T00:44:05;1.45;;;0.68;;
44646;SDS011;56315;-33.902;151.160;2023-05-03T00:46:32;1.25;;;0.38;;
44646;SDS011;56315;-33.902;151.160;2023-05-03T00:49:00;1.70;;;0.55;;
44646;SDS011;56315;-33.902;151.160;2023-05-03T00:51:28;2.40;;;0.50;;
44646;SDS011;56315;-33.902;151.160;2023-05-03T00:53:55;1.80;;;0.40;;
44646;SDS011;56315;-33.902;151.160;2023-05-03T00:56:22;2.13;;;0.60;;
44646;SDS011;56315;-33.902;151.160;2023-05-03T00:58:50;3.05;;;0.73;;
44646;SDS011;56315;-33.902;151.160;2023-05-03T01:01:18;3.03;;;0.60;;
44646;SDS011;56315;-33.902;151.160;2023-05-03T01:03:45;1.83;;;0.30;;
44646;SDS011;56315;-33.902;151.160;2023-05-03T01:08:58;0.93;;;0.50;;
44646;SDS011;56315;-33.902;151.160;2023-05-03T01:17:10;2.80;;;0.57;;
44646;SDS011;56315;-33.902;151.160;2023-05-03T01:19:43;2.35;;;0.80;;
44646;SDS011;56315;-33.902;151.160;2023-05-03T01:24:50;4.22;;;1.00;;
44646;SDS011;56315;-33.902;151.160;2023-05-03T01:27:34;3.17;;;0.65;;
44646;SDS011;56315;-33.902;151.160;2023-05-03T01:30:03;3.22;;;0.77;;
44646;SDS011;56315;-33.902;151.160;2023-05-03T01:33:15;4.65;;;0.85;;
44646;SDS011;56315;-33.902;151.160;2023-05-03T01:36:08;2.45;;;0.77;;
44646;SDS011;56315;-33.902;151.160;2023-05-03T01:40:44;4.18;;;0.95;;
44646;SDS011;56315;-33.902;151.160;2023-05-03T01:43:18;2.17;;;0.60;;
44646;SDS011;56315;-33.902;151.160;2023-05-03T01:45:47;3.35;;;1.00;;
44646;SDS011;56315;-33.902;151.160;2023-05-03T01:48:16;4.38;;;1.33;;
44646;SDS011;56315;-33.902;151.160;2023-05-03T01:50:44;2.67;;;0.80;;
44646;SDS011;56315;-33.902;151.160;2023-05-03T01:53:12;3.60;;;0.68;;
44646;SDS011;56315;-33.902;151.160;2023-05-03T01:55:39;5.05;;;0.70;;
44646;SDS011;56315;-33.902;151.160;2023-05-03T01:58:06;4.60;;;0.80;;
44646;SDS011;56315;-33.902;151.160;2023-05-03T02:00:34;2.90;;;0.68;;
44646;SDS011;56315;-33.902;151.160;2023-05-03T02:03:01;2.80;;;0.70;;
44646;SDS011;56315;-33.902;151.160;2023-05-03T02:05:29;1.88;;;0.65;;
44646;SDS011;56315;-33.902;151.160;2023-05-03T02:07:56;3.83;;;1.50;;
44646;SDS011;56315;-33.902;151.160;2023-05-03T02:10:23;5.93;;;1.45;;
44646;SDS011;56315;-33.902;151.160;2023-05-03T02:12:51;3.67;;;1.00;;
44646;SDS011;56315;-33.902;151.160;2023-05-03T02:15:18;3.70;;;0.80;;
44646;SDS011;56315;-33.902;151.160;2023-05-03T02:17:46;1.92;;;0.68;;
44646;SDS011;56315;-33.902;151.160;2023-05-03T02:20:15;1.90;;;0.60;;
44646;SDS011;56315;-33.902;151.160;2023-05-03T02:22:42;2.67;;;0.60;;
44646;SDS011;56315;-33.902;151.160;2023-05-03T02:25:09;3.42;;;0.90;;
44646;SDS011;56315;-33.902;151.160;2023-05-03T02:27:37;4.35;;;1.00;;
44646;SDS011;56315;-33.902;151.160;2023-05-03T02:30:05;3.92;;;1.10;;
44646;SDS011;56315;-33.902;151.160;2023-05-03T02:32:33;4.68;;;0.80;;
44646;SDS011;56315;-33.902;151.160;2023-05-03T02:35:00;4.07;;;0.68;;
44646;SDS011;56315;-33.902;151.160;2023-05-03T02:37:27;1.67;;;0.70;;
44646;SDS011;56315;-33.902;151.160;2023-05-03T02:39:55;2.67;;;0.50;;
44646;SDS011;56315;-33.902;151.160;2023-05-03T02:42:22;3.60;;;0.70;;
44646;SDS011;56315;-33.902;151.160;2023-05-03T02:44:51;3.38;;;1.02;;
44646;SDS011;56315;-33.902;151.160;2023-05-03T02:47:18;4.45;;;1.13;;
44646;SDS011;56315;-33.902;151.160;2023-05-03T02:49:45;8.13;;;0.68;;
44646;SDS011;56315;-33.902;151.160;2023-05-03T02:52:13;3.80;;;0.80;;
44646;SDS011;56315;-33.902;151.160;2023-05-03T02:54:40;4.85;;;0.70;;
44646;SDS011;56315;-33.902;151.160;2023-05-03T02:57:07;4.55;;;0.70;;
44646;SDS011;56315;-33.902;151.160;2023-05-03T02:59:36;4.28;;;0.70;;
44646;SDS011;56315;-33.902;151.160;2023-05-03T03:02:03;5.03;;;0.75;;
44646;SDS011;56315;-33.902;151.160;2023-05-03T03:04:30;2.25;;;0.52;;
44646;SDS011;56315;-33.902;151.160;2023-05-03T03:06:57;4.60;;;0.80;;
44646;SDS011;56315;-33.902;151.160;2023-05-03T03:09:25;2.67;;;0.60;;
44646;SDS011;56315;-33.902;151.160;2023-05-03T03:11:52;2.58;;;1.10;;
44646;SDS011;56315;-33.902;151.160;2023-05-03T03:14:19;3.13;;;1.25;;
44646;SDS011;56315;-33.902;151.160;2023-05-03T03:16:49;3.63;;;0.95;;
44646;SDS011;56315;-33.902;151.160;2023-05-03T03:19:17;2.20;;;0.80;;
44646;SDS011;56315;-33.902;151.160;2023-05-03T03:21:44;3.28;;;0.90;;
44646;SDS011;56315;-33.902;151.160;2023-05-03T03:24:12;2.10;;;0.68;;
44646;SDS011;56315;-33.902;151.160;2023-05-03T03:26:40;3.33;;;0.82;;
44646;SDS011;56315;-33.902;151.160;2023-05-03T03:29:07;3.50;;;0.93;;
44646;SDS011;56315;-33.902;151.160;2023-05-03T03:31:34;4.03;;;0.70;;
44646;SDS011;56315;-33.902;151.160;2023-05-03T03:34:02;2.83;;;0.85;;
44646;SDS011;56315;-33.902;151.160;2023-05-03T03:36:29;6.18;;;1.05;;
44646;SDS011;56315;-33.902;151.160;2023-05-03T03:38:56;3.33;;;1.08;;
44646;SDS011;56315;-33.902;151.160;2023-05-03T03:41:23;2.90;;;0.80;;
44646;SDS011;56315;-33.902;151.160;2023-05-03T03:43:51;3.60;;;0.98;;
44646;SDS011;56315;-33.902;151.160;2023-05-03T03:46:18;6.35;;;1.00;;
44646;SDS011;56315;-33.902;151.160;2023-05-03T03:48:45;3.22;;;0.80;;
44646;SDS011;56315;-33.902;151.160;2023-05-03T03:51:12;1.83;;;0.63;;
44646;SDS011;56315;-33.902;151.160;2023-05-03T03:53:40;2.17;;;0.80;;
44646;SDS011;56315;-33.902;151.160;2023-05-03T03:56:08;3.97;;;0.93;;
44646;SDS011;56315;-33.902;151.160;2023-05-03T03:58:35;3.08;;;0.70;;
44646;SDS011;56315;-33.902;151.160;2023-05-03T04:01:03;5.82;;;0.73;;
44646;SDS011;56315;-33.902;151.160;2023-05-03T04:03:30;2.22;;;0.70;;
44646;SDS011;56315;-33.902;151.160;2023-05-03T04:05:58;3.88;;;0.90;;
44646;SDS011;56315;-33.902;151.160;2023-05-03T04:08:25;2.50;;;0.80;;
44646;SDS011;56315;-33.902;151.160;2023-05-03T04:10:52;2.75;;;0.63;;
44646;SDS011;56315;-33.902;151.160;2023-05-03T04:13:19;5.25;;;0.85;;
44646;SDS011;56315;-33.902;151.160;2023-05-03T04:15:46;1.98;;;0.82;;
44646;SDS011;56315;-33.902;151.160;2023-05-03T04:18:14;2.85;;;0.47;;
44646;SDS011;56315;-33.902;151.160;2023-05-03T04:20:41;2.13;;;0.80;;
44646;SDS011;56315;-33.902;151.160;2023-05-03T04:23:09;3.05;;;0.60;;
44646;SDS011;56315;-33.902;151.160;2023-05-03T04:25:36;3.30;;;0.63;;
44646;SDS011;56315;-33.902;151.160;2023-05-03T04:28:11;3.97;;;0.68;;
44646;SDS011;56315;-33.902;151.160;2023-05-03T04:30:40;2.22;;;0.68;;
44646;SDS011;56315;-33.902;151.160;2023-05-03T04:33:11;4.45;;;0.50;;
44646;SDS011;56315;-33.902;151.160;2023-05-03T04:35:39;2.05;;;0.70;;
44646;SDS011;56315;-33.902;151.160;2023-05-03T04:38:07;3.50;;;0.70;;
44646;SDS011;56315;-33.902;151.160;2023-05-03T04:40:34;4.53;;;0.63;;
44646;SDS011;56315;-33.902;151.160;2023-05-03T04:43:02;6.53;;;0.90;;
44646;SDS011;56315;-33.902;151.160;2023-05-03T04:45:29;6.40;;;0.60;;
44646;SDS011;56315;-33.902;151.160;2023-05-03T04:47:58;1.52;;;0.32;;
44646;SDS011;56315;-33.902;151.160;2023-05-03T04:50:25;1.85;;;0.50;;
44646;SDS011;56315;-33.902;151.160;2023-05-03T04:52:53;1.15;;;0.40;;
44646;SDS011;56315;-33.902;151.160;2023-05-03T04:55:20;4.45;;;1.08;;
44646;SDS011;56315;-33.902;151.160;2023-05-03T04:57:47;1.75;;;0.40;;
44646;SDS011;56315;-33.902;151.160;2023-05-03T05:00:16;2.30;;;0.45;;
44646;SDS011;56315;-33.902;151.160;2023-05-03T05:02:43;0.95;;;0.30;;
44646;SDS011;56315;-33.902;151.160;2023-05-03T05:05:11;2.42;;;0.40;;
44646;SDS011;56315;-33.902;151.160;2023-05-03T05:07:38;2.15;;;0.50;;
44646;SDS011;56315;-33.902;151.160;2023-05-03T05:10:05;2.00;;;0.52;;
44646;SDS011;56315;-33.902;151.160;2023-05-03T05:12:33;3.65;;;0.57;;
44646;SDS011;56315;-33.902;151.160;2023-05-03T05:15:01;1.80;;;0.50;;
44646;SDS011;56315;-33.902;151.160;2023-05-03T05:17:28;4.65;;;0.50;;
44646;SDS011;56315;-33.902;151.160;2023-05-03T05:19:56;4.45;;;0.63;;
44646;SDS011;56315;-33.902;151.160;2023-05-03T05:22:23;0.68;;;0.30;;
44646;SDS011;56315;-33.902;151.160;2023-05-03T05:24:50;1.52;;;0.20;;
44646;SDS011;56315;-33.902;151.160;2023-05-03T05:27:18;3.88;;;0.60;;
44646;SDS011;56315;-33.902;151.160;2023-05-03T05:29:45;5.65;;;0.77;;
44646;SDS011;56315;-33.902;151.160;2023-05-03T05:32:12;4.43;;;0.63;;
44646;SDS011;56315;-33.902;151.160;2023-05-03T05:34:40;1.48;;;0.35;;
44646;SDS011;56315;-33.902;151.160;2023-05-03T05:37:07;1.58;;;0.50;;
44646;SDS011;56315;-33.902;151.160;2023-05-03T05:39:34;3.97;;;0.45;;
44646;SDS011;56315;-33.902;151.160;2023-05-03T05:42:02;2.45;;;0.40;;
44646;SDS011;56315;-33.902;151.160;2023-05-03T05:44:29;3.35;;;0.50;;
44646;SDS011;56315;-33.902;151.160;2023-05-03T05:46:57;2.25;;;0.60;;
44646;SDS011;56315;-33.902;151.160;2023-05-03T05:49:24;3.63;;;0.75;;
44646;SDS011;56315;-33.902;151.160;2023-05-03T05:51:51;2.17;;;0.50;;
44646;SDS011;56315;-33.902;151.160;2023-05-03T05:54:18;3.38;;;0.65;;
44646;SDS011;56315;-33.902;151.160;2023-05-03T05:56:45;2.20;;;0.60;;
44646;SDS011;56315;-33.902;151.160;2023-05-03T05:59:13;3.17;;;0.50;;
44646;SDS011;56315;-33.902;151.160;2023-05-03T06:01:41;1.80;;;0.40;;
44646;SDS011;56315;-33.902;151.160;2023-05-03T06:04:14;2.72;;;0.40;;
44646;SDS011;56315;-33.902;151.160;2023-05-03T06:06:41;2.30;;;0.70;;
44646;SDS011;56315;-33.902;151.160;2023-05-03T06:09:08;3.50;;;0.50;;
44646;SDS011;56315;-33.902;151.160;2023-05-03T06:11:36;2.30;;;0.52;;
44646;SDS011;56315;-33.902;151.160;2023-05-03T06:14:03;2.13;;;0.47;;
44646;SDS011;56315;-33.902;151.160;2023-05-03T06:16:35;3.13;;;0.60;;
44646;SDS011;56315;-33.902;151.160;2023-05-03T06:19:02;2.92;;;0.60;;
44646;SDS011;56315;-33.902;151.160;2023-05-03T06:21:30;3.05;;;0.63;;
44646;SDS011;56315;-33.902;151.160;2023-05-03T06:23:57;5.35;;;0.63;;
44646;SDS011;56315;-33.902;151.160;2023-05-03T06:26:25;3.47;;;0.40;;
44646;SDS011;56315;-33.902;151.160;2023-05-03T06:28:52;4.07;;;0.70;;
44646;SDS011;56315;-33.902;151.160;2023-05-03T06:31:19;3.35;;;0.43;;
44646;SDS011;56315;-33.902;151.160;2023-05-03T06:33:47;1.85;;;0.55;;
44646;SDS011;56315;-33.902;151.160;2023-05-03T06:36:14;1.38;;;0.50;;
44646;SDS011;56315;-33.902;151.160;2023-05-03T06:38:41;1.85;;;0.43;;
44646;SDS011;56315;-33.902;151.160;2023-05-03T06:41:09;1.25;;;0.50;;
44646;SDS011;56315;-33.902;151.160;2023-05-03T06:43:36;1.92;;;0.65;;
44646;SDS011;56315;-33.902;151.160;2023-05-03T06:46:03;1.73;;;0.60;;
44646;SDS011;56315;-33.902;151.160;2023-05-03T06:48:31;3.35;;;1.15;;
44646;SDS011;56315;-33.902;151.160;2023-05-03T06:50:58;2.22;;;0.80;;
44646;SDS011;56315;-33.902;151.160;2023-05-03T06:53:25;2.17;;;0.47;;
44646;SDS011;56315;-33.902;151.160;2023-05-03T06:55:53;1.77;;;0.60;;
44646;SDS011;56315;-33.902;151.160;2023-05-03T06:58:20;2.80;;;0.77;;
44646;SDS011;56315;-33.902;151.160;2023-05-03T07:00:50;3.45;;;0.80;;
44646;SDS011;56315;-33.902;151.160;2023-05-03T07:03:18;5.50;;;1.70;;
44646;SDS011;56315;-33.902;151.160;2023-05-03T07:05:45;7.43;;;2.00;;
44646;SDS011;56315;-33.902;151.160;2023-05-03T07:08:14;3.50;;;1.17;;
44646;SDS011;56315;-33.902;151.160;2023-05-03T07:10:42;4.18;;;1.00;;
44646;SDS011;56315;-33.902;151.160;2023-05-03T07:13:09;1.17;;;0.60;;
44646;SDS011;56315;-33.902;151.160;2023-05-03T07:15:36;2.28;;;0.90;;
44646;SDS011;56315;-33.902;151.160;2023-05-03T07:18:03;1.55;;;0.70;;
44646;SDS011;56315;-33.902;151.160;2023-05-03T07:20:31;1.35;;;0.47;;
44646;SDS011;56315;-33.902;151.160;2023-05-03T07:22:58;3.25;;;0.73;;
44646;SDS011;56315;-33.902;151.160;2023-05-03T07:25:26;1.63;;;0.60;;
44646;SDS011;56315;-33.902;151.160;2023-05-03T07:27:53;2.22;;;0.60;;
44646;SDS011;56315;-33.902;151.160;2023-05-03T07:30:20;5.47;;;0.90;;
44646;SDS011;56315;-33.902;151.160;2023-05-03T07:32:48;1.92;;;1.00;;
44646;SDS011;56315;-33.902;151.160;2023-05-03T07:35:15;3.75;;;0.90;;
44646;SDS011;56315;-33.902;151.160;2023-05-03T07:37:43;1.25;;;0.70;;
44646;SDS011;56315;-33.902;151.160;2023-05-03T07:40:11;3.33;;;0.90;;
44646;SDS011;56315;-33.902;151.160;2023-05-03T07:42:38;3.75;;;0.70;;
44646;SDS011;56315;-33.902;151.160;2023-05-03T07:45:06;3.05;;;0.70;;
44646;SDS011;56315;-33.902;151.160;2023-05-03T07:47:33;4.22;;;0.80;;
44646;SDS011;56315;-33.902;151.160;2023-05-03T07:50:05;1.90;;;0.70;;
44646;SDS011;56315;-33.902;151.160;2023-05-03T07:52:36;1.80;;;0.70;;
44646;SDS011;56315;-33.902;151.160;2023-05-03T07:55:07;2.90;;;0.80;;
44646;SDS011;56315;-33.902;151.160;2023-05-03T07:57:35;1.77;;;0.60;;
44646;SDS011;56315;-33.902;151.160;2023-05-03T08:00:02;2.40;;;0.55;;
44646;SDS011;56315;-33.902;151.160;2023-05-03T08:02:30;3.25;;;0.73;;
44646;SDS011;56315;-33.902;151.160;2023-05-03T08:04:57;3.38;;;0.60;;
44646;SDS011;56315;-33.902;151.160;2023-05-03T08:07:25;3.60;;;1.00;;
44646;SDS011;56315;-33.902;151.160;2023-05-03T08:09:53;3.83;;;0.95;;
44646;SDS011;56315;-33.902;151.160;2023-05-03T08:12:23;2.17;;;0.85;;
44646;SDS011;56315;-33.902;151.160;2023-05-03T08:14:51;3.85;;;0.70;;
44646;SDS011;56315;-33.902;151.160;2023-05-03T08:17:20;2.97;;;0.70;;
44646;SDS011;56315;-33.902;151.160;2023-05-03T08:19:48;3.58;;;1.35;;
44646;SDS011;56315;-33.902;151.160;2023-05-03T08:22:16;3.42;;;0.80;;
44646;SDS011;56315;-33.902;151.160;2023-05-03T08:24:44;3.58;;;1.17;;
44646;SDS011;56315;-33.902;151.160;2023-05-03T08:27:11;2.55;;;1.05;;
44646;SDS011;56315;-33.902;151.160;2023-05-03T08:29:39;2.97;;;1.23;;
44646;SDS011;56315;-33.902;151.160;2023-05-03T08:32:06;3.30;;;1.38;;
44646;SDS011;56315;-33.902;151.160;2023-05-03T08:34:33;1.90;;;0.90;;
44646;SDS011;56315;-33.902;151.160;2023-05-03T08:37:01;4.13;;;1.27;;
44646;SDS011;56315;-33.902;151.160;2023-05-03T08:39:29;4.53;;;2.03;;
44646;SDS011;56315;-33.902;151.160;2023-05-03T08:41:57;2.28;;;1.83;;
44646;SDS011;56315;-33.902;151.160;2023-05-03T08:44:27;3.13;;;1.95;;
44646;SDS011;56315;-33.902;151.160;2023-05-03T08:46:55;4.03;;;1.55;;
44646;SDS011;56315;-33.902;151.160;2023-05-03T08:49:24;3.72;;;1.10;;
44646;SDS011;56315;-33.902;151.160;2023-05-03T08:51:53;3.80;;;0.90;;
44646;SDS011;56315;-33.902;151.160;2023-05-03T08:54:22;3.10;;;1.08;;
44646;SDS011;56315;-33.902;151.160;2023-05-03T08:56:49;3.95;;;0.93;;
44646;SDS011;56315;-33.902;151.160;2023-05-03T08:59:17;2.25;;;1.08;;
44646;SDS011;56315;-33.902;151.160;2023-05-03T09:01:44;1.90;;;0.93;;
44646;SDS011;56315;-33.902;151.160;2023-05-03T09:04:11;3.63;;;0.77;;
44646;SDS011;56315;-33.902;151.160;2023-05-03T09:06:39;2.58;;;1.00;;
44646;SDS011;56315;-33.902;151.160;2023-05-03T09:09:07;1.67;;;0.70;;
44646;SDS011;56315;-33.902;151.160;2023-05-03T09:11:36;2.05;;;0.90;;
44646;SDS011;56315;-33.902;151.160;2023-05-03T09:14:10;2.45;;;0.95;;
44646;SDS011;56315;-33.902;151.160;2023-05-03T09:16:43;3.50;;;0.75;;
44646;SDS011;56315;-33.902;151.160;2023-05-03T09:19:12;4.45;;;1.42;;
44646;SDS011;56315;-33.902;151.160;2023-05-03T09:21:40;2.33;;;0.60;;
44646;SDS011;56315;-33.902;151.160;2023-05-03T09:24:16;1.42;;;0.80;;
44646;SDS011;56315;-33.902;151.160;2023-05-03T09:26:44;2.45;;;0.93;;
44646;SDS011;56315;-33.902;151.160;2023-05-03T09:29:32;1.83;;;0.73;;
44646;SDS011;56315;-33.902;151.160;2023-05-03T09:32:02;2.33;;;0.82;;
44646;SDS011;56315;-33.902;151.160;2023-05-03T09:34:33;1.92;;;0.90;;
44646;SDS011;56315;-33.902;151.160;2023-05-03T09:37:01;4.30;;;1.02;;
44646;SDS011;56315;-33.902;151.160;2023-05-03T09:39:29;2.65;;;0.55;;
44646;SDS011;56315;-33.902;151.160;2023-05-03T09:41:57;3.22;;;0.90;;
44646;SDS011;56315;-33.902;151.160;2023-05-03T09:47:18;1.30;;;0.60;;
44646;SDS011;56315;-33.902;151.160;2023-05-03T09:49:46;2.90;;;0.73;;
44646;SDS011;56315;-33.902;151.160;2023-05-03T09:52:13;1.23;;;0.70;;
44646;SDS011;56315;-33.902;151.160;2023-05-03T09:54:41;4.40;;;0.80;;
44646;SDS011;56315;-33.902;151.160;2023-05-03T09:57:08;12.13;;;1.40;;
44646;SDS011;56315;-33.902;151.160;2023-05-03T09:59:36;4.18;;;0.80;;
44646;SDS011;56315;-33.902;151.160;2023-05-03T10:02:05;7.45;;;0.82;;
44646;SDS011;56315;-33.902;151.160;2023-05-03T10:04:49;2.92;;;0.80;;
44646;SDS011;56315;-33.902;151.160;2023-05-03T10:07:18;2.50;;;0.70;;
44646;SDS011;56315;-33.902;151.160;2023-05-03T10:09:47;1.75;;;0.80;;
44646;SDS011;56315;-33.902;151.160;2023-05-03T10:12:14;3.28;;;0.80;;
44646;SDS011;56315;-33.902;151.160;2023-05-03T10:14:43;5.80;;;0.98;;
44646;SDS011;56315;-33.902;151.160;2023-05-03T10:17:22;3.25;;;0.80;;
44646;SDS011;56315;-33.902;151.160;2023-05-03T10:20:08;4.68;;;0.88;;
44646;SDS011;56315;-33.902;151.160;2023-05-03T10:25:31;3.85;;;1.20;;
44646;SDS011;56315;-33.902;151.160;2023-05-03T10:28:09;6.80;;;1.45;;
44646;SDS011;56315;-33.902;151.160;2023-05-03T10:30:37;4.05;;;1.00;;
44646;SDS011;56315;-33.902;151.160;2023-05-03T10:35:39;6.20;;;1.73;;
44646;SDS011;56315;-33.902;151.160;2023-05-03T10:38:15;6.25;;;1.27;;
44646;SDS011;56315;-33.902;151.160;2023-05-03T10:40:45;3.70;;;1.10;;
44646;SDS011;56315;-33.902;151.160;2023-05-03T10:45:56;4.78;;;1.40;;
44646;SDS011;56315;-33.902;151.160;2023-05-03T10:48:27;8.52;;;2.00;;
44646;SDS011;56315;-33.902;151.160;2023-05-03T10:50:55;5.97;;;1.75;;
44646;SDS011;56315;-33.902;151.160;2023-05-03T10:53:43;8.32;;;1.67;;
44646;SDS011;56315;-33.902;151.160;2023-05-03T10:56:11;9.63;;;2.30;;
44646;SDS011;56315;-33.902;151.160;2023-05-03T10:58:43;4.68;;;1.60;;
44646;SDS011;56315;-33.902;151.160;2023-05-03T11:01:17;7.45;;;2.28;;
44646;SDS011;56315;-33.902;151.160;2023-05-03T11:06:36;11.00;;;1.80;;
44646;SDS011;56315;-33.902;151.160;2023-05-03T11:09:06;8.82;;;2.03;;
44646;SDS011;56315;-33.902;151.160;2023-05-03T11:11:35;7.38;;;1.90;;
44646;SDS011;56315;-33.902;151.160;2023-05-03T11:14:05;6.00;;;1.52;;
44646;SDS011;56315;-33.902;151.160;2023-05-03T11:16:33;7.07;;;1.85;;
44646;SDS011;56315;-33.902;151.160;2023-05-03T11:19:01;9.45;;;2.10;;
44646;SDS011;56315;-33.902;151.160;2023-05-03T11:21:29;7.63;;;1.88;;
44646;SDS011;56315;-33.902;151.160;2023-05-03T11:23:57;6.93;;;1.48;;
44646;SDS011;56315;-33.902;151.160;2023-05-03T11:26:26;9.52;;;2.28;;
44646;SDS011;56315;-33.902;151.160;2023-05-03T11:28:53;8.15;;;2.28;;
44646;SDS011;56315;-33.902;151.160;2023-05-03T11:31:20;9.18;;;2.88;;
44646;SDS011;56315;-33.902;151.160;2023-05-03T11:33:48;15.00;;;3.28;;
44646;SDS011;56315;-33.902;151.160;2023-05-03T11:36:16;13.50;;;3.22;;
44646;SDS011;56315;-33.902;151.160;2023-05-03T11:38:43;11.48;;;2.65;;
44646;SDS011;56315;-33.902;151.160;2023-05-03T11:41:12;9.73;;;2.47;;
44646;SDS011;56315;-33.902;151.160;2023-05-03T11:43:46;14.32;;;3.13;;
44646;SDS011;56315;-33.902;151.160;2023-05-03T11:46:18;8.15;;;2.58;;
44646;SDS011;56315;-33.902;151.160;2023-05-03T11:48:49;8.38;;;2.42;;
44646;SDS011;56315;-33.902;151.160;2023-05-03T11:51:20;10.60;;;2.50;;
44646;SDS011;56315;-33.902;151.160;2023-05-03T11:53:48;11.02;;;2.80;;
44646;SDS011;56315;-33.902;151.160;2023-05-03T11:56:16;10.48;;;2.75;;
44646;SDS011;56315;-33.902;151.160;2023-05-03T11:58:51;9.75;;;2.40;;
44646;SDS011;56315;-33.902;151.160;2023-05-03T12:01:27;10.13;;;3.40;;
44646;SDS011;56315;-33.902;151.160;2023-05-03T12:06:27;10.70;;;3.17;;
44646;SDS011;56315;-33.902;151.160;2023-05-03T12:08:55;10.88;;;3.17;;
44646;SDS011;56315;-33.902;151.160;2023-05-03T12:11:23;13.30;;;3.28;;
44646;SDS011;56315;-33.902;151.160;2023-05-03T12:13:59;11.10;;;2.92;;
44646;SDS011;56315;-33.902;151.160;2023-05-03T12:16:27;10.25;;;3.08;;
44646;SDS011;56315;-33.902;151.160;2023-05-03T12:19:11;9.73;;;3.03;;
44646;SDS011;56315;-33.902;151.160;2023-05-03T12:21:48;8.80;;;2.95;;
44646;SDS011;56315;-33.902;151.160;2023-05-03T12:24:15;9.60;;;2.85;;
44646;SDS011;56315;-33.902;151.160;2023-05-03T12:26:44;10.27;;;2.80;;
44646;SDS011;56315;-33.902;151.160;2023-05-03T12:29:11;11.13;;;3.22;;
44646;SDS011;56315;-33.902;151.160;2023-05-03T12:31:39;10.25;;;3.38;;
44646;SDS011;56315;-33.902;151.160;2023-05-03T12:34:07;10.07;;;2.90;;
44646;SDS011;56315;-33.902;151.160;2023-05-03T12:36:34;8.02;;;2.97;;
44646;SDS011;56315;-33.902;151.160;2023-05-03T12:39:02;9.77;;;3.15;;
44646;SDS011;56315;-33.902;151.160;2023-05-03T12:41:30;10.05;;;2.78;;
44646;SDS011;56315;-33.902;151.160;2023-05-03T12:43:57;9.77;;;2.80;;
44646;SDS011;56315;-33.902;151.160;2023-05-03T12:46:25;12.27;;;3.22;;
44646;SDS011;56315;-33.902;151.160;2023-05-03T12:48:53;7.72;;;2.30;;
44646;SDS011;56315;-33.902;151.160;2023-05-03T12:51:20;14.15;;;2.85;;
44646;SDS011;56315;-33.902;151.160;2023-05-03T12:53:49;8.75;;;2.97;;
44646;SDS011;56315;-33.902;151.160;2023-05-03T12:56:16;9.40;;;3.08;;
44646;SDS011;56315;-33.902;151.160;2023-05-03T12:58:44;9.88;;;3.30;;
44646;SDS011;56315;-33.902;151.160;2023-05-03T13:01:14;7.50;;;3.20;;
44646;SDS011;56315;-33.902;151.160;2023-05-03T13:03:42;10.98;;;3.17;;
44646;SDS011;56315;-33.902;151.160;2023-05-03T13:06:10;10.40;;;3.15;;
44646;SDS011;56315;-33.902;151.160;2023-05-03T13:08:37;10.82;;;2.92;;
44646;SDS011;56315;-33.902;151.160;2023-05-03T13:11:05;9.88;;;2.83;;
44646;SDS011;56315;-33.902;151.160;2023-05-03T13:13:33;12.23;;;2.75;;
44646;SDS011;56315;-33.902;151.160;2023-05-03T13:16:00;8.27;;;3.17;;
44646;SDS011;56315;-33.902;151.160;2023-05-03T13:18:27;9.70;;;2.83;;
44646;SDS011;56315;-33.902;151.160;2023-05-03T13:20:54;12.95;;;2.72;;
44646;SDS011;56315;-33.902;151.160;2023-05-03T13:23:21;18.42;;;3.17;;
44646;SDS011;56315;-33.902;151.160;2023-05-03T13:25:49;14.07;;;2.72;;
44646;SDS011;56315;-33.902;151.160;2023-05-03T13:28:18;10.52;;;3.10;;
44646;SDS011;56315;-33.902;151.160;2023-05-03T13:30:48;8.43;;;2.45;;
44646;SDS011;56315;-33.902;151.160;2023-05-03T13:33:16;11.73;;;2.35;;
44646;SDS011;56315;-33.902;151.160;2023-05-03T13:35:43;10.45;;;2.42;;
44646;SDS011;56315;-33.902;151.160;2023-05-03T13:38:11;9.32;;;2.58;;
44646;SDS011;56315;-33.902;151.160;2023-05-03T13:40:38;27.55;;;3.65;;
44646;SDS011;56315;-33.902;151.160;2023-05-03T13:43:06;11.55;;;2.22;;
44646;SDS011;56315;-33.902;151.160;2023-05-03T13:45:33;9.65;;;2.58;;
44646;SDS011;56315;-33.902;151.160;2023-05-03T13:48:00;10.35;;;2.80;;
44646;SDS011;56315;-33.902;151.160;2023-05-03T13:50:28;8.38;;;2.47;;
44646;SDS011;56315;-33.902;151.160;2023-05-03T13:52:55;9.63;;;2.95;;
44646;SDS011;56315;-33.902;151.160;2023-05-03T13:55:23;8.00;;;1.92;;
44646;SDS011;56315;-33.902;151.160;2023-05-03T13:57:53;9.48;;;2.03;;
44646;SDS011;56315;-33.902;151.160;2023-05-03T14:00:20;9.20;;;2.50;;
44646;SDS011;56315;-33.902;151.160;2023-05-03T14:02:47;7.10;;;2.25;;
44646;SDS011;56315;-33.902;151.160;2023-05-03T14:05:16;10.77;;;2.67;;
44646;SDS011;56315;-33.902;151.160;2023-05-03T14:07:46;8.80;;;2.92;;
44646;SDS011;56315;-33.902;151.160;2023-05-03T14:10:13;12.82;;;2.80;;
44646;SDS011;56315;-33.902;151.160;2023-05-03T14:12:40;8.13;;;2.25;;
44646;SDS011;56315;-33.902;151.160;2023-05-03T14:15:09;8.57;;;2.10;;
44646;SDS011;56315;-33.902;151.160;2023-05-03T14:17:36;7.65;;;2.22;;
44646;SDS011;56315;-33.902;151.160;2023-05-03T14:20:04;6.50;;;2.22;;
44646;SDS011;56315;-33.902;151.160;2023-05-03T14:22:33;8.38;;;2.67;;
44646;SDS011;56315;-33.902;151.160;2023-05-03T14:25:01;8.50;;;2.17;;
44646;SDS011;56315;-33.902;151.160;2023-05-03T14:27:28;7.65;;;1.83;;
44646;SDS011;56315;-33.902;151.160;2023-05-03T14:29:56;9.02;;;1.52;;
44646;SDS011;56315;-33.902;151.160;2023-05-03T14:32:23;8.68;;;2.55;;
44646;SDS011;56315;-33.902;151.160;2023-05-03T14:34:51;8.93;;;2.15;;
44646;SDS011;56315;-33.902;151.160;2023-05-03T14:37:18;9.25;;;2.28;;
44646;SDS011;56315;-33.902;151.160;2023-05-03T14:39:46;7.78;;;2.00;;
44646;SDS011;56315;-33.902;151.160;2023-05-03T14:42:13;6.95;;;1.95;;
44646;SDS011;56315;-33.902;151.160;2023-05-03T14:44:40;7.63;;;2.00;;
44646;SDS011;56315;-33.902;151.160;2023-05-03T14:47:08;7.57;;;2.25;;